Time;durP1;ratioP1;P1;durP2;ratioP2;P2;SDS_P1;SDS_P2;PMS_P1;PMS_P2;Temp;Humidity;BMP_temperature;BMP_pressure;BME280_temperature;BME280_humidity;BME280_pressure;Samples;Min_cycle;Max_cycle;Signal;HPM_P1;HPM_P2
2021/08/31 00:07:40;;;;;;;7.27;5.43;;;;;;;16.79;100.00;99844.62;716037;1177;113800;-75
2021/08/31 00:22:43;;;;;;;8.43;5.78;;;;;;;16.78;100.00;99842.97;715933;1200;113927;-76
2021/08/31 00:37:45;;;;;;;7.88;4.80;;;;;;;16.81;100.00;99849.73;715718;1200;114736;-76
2021/08/31 00:52:47;;;;;;;8.45;5.95;;;;;;;16.79;100.00;99836.67;715661;1178;114142;-75
2021/08/31 01:07:49;;;;;;;7.43;4.40;;;;;;;16.82;100.00;99839.97;715583;1200;113816;-76
2021/08/31 01:22:52;;;;;;;8.30;4.55;;;;;;;16.83;100.00;99836.32;715964;1202;114598;-76
2021/08/31 01:37:54;;;;;;;17.68;8.88;;;;;;;16.86;100.00;99839.39;715643;1203;113708;-76
2021/08/31 01:52:56;;;;;;;6.03;3.95;;;;;;;16.83;100.00;99825.73;715789;1203;114138;-75
2021/08/31 02:07:59;;;;;;;17.83;3.85;;;;;;;16.83;100.00;99809.84;715284;1199;115408;-76
2021/08/31 02:23:01;;;;;;;5.50;3.53;;;;;;;16.88;100.00;99802.11;715168;1178;114568;-76
2021/08/31 02:38:04;;;;;;;3.68;2.55;;;;;;;16.78;100.00;99799.79;715393;1203;114879;-76
2021/08/31 02:53:06;;;;;;;3.00;2.70;;;;;;;16.75;100.00;99797.52;715384;1200;113821;-76
2021/08/31 03:08:08;;;;;;;3.83;2.38;;;;;;;16.68;100.00;99797.45;715369;1199;114821;-76
2021/08/31 03:23:10;;;;;;;4.10;2.95;;;;;;;16.70;100.00;99797.27;715317;1202;114589;-77
2021/08/31 03:38:12;;;;;;;7.28;3.90;;;;;;;16.70;100.00;99790.13;715316;1203;113909;-75
2021/08/31 03:53:15;;;;;;;7.60;4.10;;;;;;;16.66;100.00;99798.65;715260;1177;114021;-76
2021/08/31 04:08:17;;;;;;;7.13;4.00;;;;;;;16.70;100.00;99789.31;715366;1199;115222;-77
2021/08/31 04:23:19;;;;;;;5.20;3.63;;;;;;;16.72;100.00;99811.13;715647;1200;114238;-77
2021/08/31 04:38:22;;;;;;;4.20;2.98;;;;;;;16.76;100.00;99842.36;715563;1200;115589;-77
2021/08/31 04:53:27;;;;;;;15.90;6.95;;;;;;;16.76;100.00;99850.30;715144;1206;113802;-75
2021/08/31 05:08:29;;;;;;;16.15;6.80;;;;;;;16.76;100.00;99847.66;715515;1204;114929;-76
2021/08/31 05:23:33;;;;;;;15.58;9.28;;;;;;;16.68;100.00;99853.06;715291;1200;114278;-77
2021/08/31 05:38:35;;;;;;;13.60;7.23;;;;;;;16.70;100.00;99840.44;715385;1203;113996;-75
2021/08/31 05:53:37;;;;;;;6.55;4.35;;;;;;;16.74;100.00;99812.58;715315;1199;114222;-76
2021/08/31 06:08:40;;;;;;;8.83;4.40;;;;;;;16.79;100.00;99810.19;715300;1187;114512;-74
2021/08/31 06:23:42;;;;;;;3.53;3.20;;;;;;;16.74;100.00;99809.12;715346;1178;113832;-73
2021/08/31 06:38:45;;;;;;;6.15;4.40;;;;;;;16.68;100.00;99808.05;715274;1200;114035;-74
2021/08/31 06:53:47;;;;;;;4.75;3.18;;;;;;;16.69;100.00;99825.55;715232;1203;114454;-76
2021/08/31 07:08:49;;;;;;;13.27;8.77;;;;;;;16.66;100.00;99830.42;715461;1202;114617;-76
2021/08/31 07:23:53;;;;;;;4.73;2.98;;;;;;;16.80;100.00;99829.57;715654;1200;114387;-75
2021/08/31 07:38:56;;;;;;;2.80;2.20;;;;;;;16.92;100.00;99841.33;715853;1200;114383;-75
2021/08/31 07:53:58;;;;;;;3.15;2.18;;;;;;;16.87;100.00;99851.64;715632;1176;114298;-75
2021/08/31 08:09:01;;;;;;;2.73;1.90;;;;;;;16.81;100.00;99849.73;715872;1199;115047;-79
2021/08/31 08:24:08;;;;;;;5.60;3.40;;;;;;;16.70;100.00;99850.23;719198;1200;114945;-77
2021/08/31 08:39:11;;;;;;;6.63;5.70;;;;;;;16.77;100.00;99853.76;715873;1205;114383;-78
2021/08/31 08:54:14;;;;;;;4.07;3.20;;;;;;;16.60;100.00;99869.88;716815;1202;114198;-78
2021/08/31 09:09:16;;;;;;;5.03;2.88;;;;;;;16.52;100.00;99867.30;716715;1200;114265;-78
2021/08/31 09:24:20;;;;;;;8.55;3.08;;;;;;;16.53;100.00;99879.55;717600;1200;115236;-81
2021/08/31 09:39:29;;;;;;;10.17;5.37;;;;;;;16.45;100.00;99882.30;717567;1199;113680;-80
2021/08/31 09:54:34;;;;;;;;;;;;;;;16.41;100.00;99886.31;716452;1200;114612;-80
2021/08/31 10:09:39;;;;;;;4.23;2.98;;;;;;;16.49;100.00;99874.81;716293;1199;100456;-79
2021/08/31 10:24:42;;;;;;;4.77;2.83;;;;;;;16.56;100.00;99846.59;715797;1200;113686;-78
2021/08/31 10:39:53;;;;;;;10.40;5.30;;;;;;;16.66;100.00;99875.44;716140;1202;113816;-80
2021/08/31 10:54:56;;;;;;;13.27;7.00;;;;;;;16.58;100.00;99903.64;717702;1178;114850;-81
2021/08/31 11:09:58;;;;;;;9.38;4.98;;;;;;;16.56;100.00;99939.25;717824;1177;113891;-80
2021/08/31 11:25:00;;;;;;;6.43;4.75;;;;;;;16.66;100.00;99947.75;716263;1204;114512;-80
2021/08/31 11:40:04;;;;;;;5.73;4.08;;;;;;;16.82;100.00;99969.77;716014;1187;115032;-80
2021/08/31 11:55:07;;;;;;;7.85;4.75;;;;;;;16.83;100.00;99974.06;716128;1200;113870;-78
2021/08/31 12:10:10;;;;;;;5.90;4.30;;;;;;;16.77;100.00;99992.33;717659;1176;113696;-77
2021/08/31 12:25:14;;;;;;;16.80;8.90;;;;;;;16.66;100.00;100008.66;717895;1204;114139;-81
2021/08/31 12:40:21;;;;;;;6.43;4.83;;;;;;;16.65;100.00;100014.95;717968;1200;113266;-80
2021/08/31 12:55:29;;;;;;;20.93;9.33;;;;;;;16.58;100.00;100019.34;719967;1200;114279;-80
2021/08/31 13:10:32;;;;;;;11.40;6.98;;;;;;;16.52;100.00;100017.41;717796;1174;115690;-81
2021/08/31 13:25:34;;;;;;;12.50;7.98;;;;;;;16.53;100.00;100019.06;717925;1177;114324;-81
2021/08/31 13:40:37;;;;;;;21.45;12.88;;;;;;;16.46;100.00;100021.61;717906;1177;114885;-81
2021/08/31 13:55:40;;;;;;;19.07;12.13;;;;;;;16.43;100.00;100017.49;717880;1202;114749;-79
2021/08/31 14:10:44;;;;;;;29.18;16.18;;;;;;;16.52;100.00;99999.69;717427;1200;115104;-81
2021/08/31 14:25:46;;;;;;;23.75;15.38;;;;;;;16.78;100.00;100001.89;716128;1205;114790;-77
2021/08/31 14:40:49;;;;;;;22.27;14.03;;;;;;;16.86;100.00;100003.63;716388;1198;114329;-84
2021/08/31 14:55:51;;;;;;;25.93;15.33;;;;;;;16.84;100.00;99999.52;716620;1200;115629;-79
2021/08/31 15:10:55;;;;;;;22.33;13.20;;;;;;;16.70;100.00;100028.47;717160;1199;115436;-78
2021/08/31 15:25:57;;;;;;;20.10;12.78;;;;;;;16.68;100.00;100035.80;716076;1199;115245;-78
2021/08/31 15:41:00;;;;;;;21.23;13.30;;;;;;;16.66;100.00;100047.57;716092;1176;114206;-79
2021/08/31 15:56:03;;;;;;;14.55;10.33;;;;;;;16.54;100.00;100048.00;717862;1174;114404;-83
2021/08/31 16:11:08;;;;;;;13.98;9.05;;;;;;;16.42;100.00;100071.44;717446;1177;114824;-81
2021/08/31 16:26:11;;;;;;;17.10;10.93;;;;;;;16.44;100.00;100066.80;716227;1199;114218;-81
2021/08/31 16:41:13;;;;;;;20.00;12.48;;;;;;;16.42;100.00;100076.73;716256;1200;115071;-80
2021/08/31 16:56:16;;;;;;;21.73;13.60;;;;;;;16.45;100.00;100086.14;716182;1193;115270;-81
2021/08/31 17:11:18;;;;;;;22.78;13.98;;;;;;;16.45;100.00;100102.84;716138;1200;114408;-77
2021/08/31 17:26:21;;;;;;;51.25;27.30;;;;;;;16.38;100.00;100109.86;718943;1177;114381;-78
2021/08/31 17:41:23;;;;;;;25.95;15.45;;;;;;;16.36;100.00;100132.20;716827;1176;114469;-79
2021/08/31 17:56:27;;;;;;;19.10;13.13;;;;;;;16.32;100.00;100150.25;716613;1203;115711;-81
2021/08/31 18:11:29;;;;;;;19.83;12.20;;;;;;;16.16;100.00;100166.26;715870;1174;114220;-78
2021/08/31 18:26:32;;;;;;;18.90;10.90;;;;;;;16.02;100.00;100176.59;717397;1200;114465;-83
2021/08/31 18:41:34;;;;;;;19.90;12.70;;;;;;;15.96;100.00;100179.92;718075;1205;114414;-81
2021/08/31 18:56:37;;;;;;;19.95;12.05;;;;;;;16.01;100.00;100192.61;718920;1203;114803;-81
2021/08/31 19:11:39;;;;;;;12.60;8.50;;;;;;;15.96;100.00;100201.08;716688;1177;114322;-80
2021/08/31 19:26:41;;;;;;;12.83;6.95;;;;;;;15.93;100.00;100201.44;716611;1200;114152;-81
2021/08/31 19:41:43;;;;;;;13.23;7.03;;;;;;;15.92;100.00;100197.95;722897;1200;114959;-85
2021/08/31 19:56:46;;;;;;;8.73;5.33;;;;;;;15.82;100.00;100210.55;718828;1200;114573;-85
2021/08/31 20:11:49;;;;;;;12.40;5.80;;;;;;;15.86;100.00;100216.33;718737;1200;113997;-86
2021/08/31 20:26:53;;;;;;;7.60;5.70;;;;;;;15.90;100.00;100233.50;718594;1200;114654;-86
2021/08/31 20:41:55;;;;;;;11.57;6.23;;;;;;;15.93;100.00;100244.58;718566;1199;114526;-85
2021/08/31 20:56:58;;;;;;;18.50;11.57;;;;;;;15.91;100.00;100265.07;718001;1177;114206;-86
2021/08/31 21:12:00;;;;;;;14.07;8.07;;;;;;;15.95;100.00;100274.31;718107;1202;114431;-86
2021/08/31 21:27:03;;;;;;;18.10;8.83;;;;;;;15.80;100.00;100279.48;718220;1200;114073;-86
2021/08/31 21:42:05;;;;;;;17.33;9.75;;;;;;;15.82;100.00;100294.38;716593;1204;115453;-79
2021/08/31 21:57:07;;;;;;;16.53;9.63;;;;;;;15.88;100.00;100309.58;715856;1199;114360;-78
2021/08/31 22:12:09;;;;;;;13.80;7.95;;;;;;;15.80;100.00;100321.80;715606;1177;114085;-79
2021/08/31 22:27:12;;;;;;;16.47;9.40;;;;;;;15.77;100.00;100327.41;716428;1176;114550;-78
2021/08/31 22:42:14;;;;;;;16.13;8.95;;;;;;;15.85;100.00;100321.31;716468;1199;114563;-80
2021/08/31 22:57:16;;;;;;;14.80;9.60;;;;;;;15.82;100.00;100336.69;716334;1199;114182;-79
2021/08/31 23:12:18;;;;;;;13.95;8.90;;;;;;;15.94;100.00;100335.33;716103;1199;115860;-79
2021/08/31 23:27:21;;;;;;;15.63;9.00;;;;;;;15.88;100.00;100338.67;716271;1176;114155;-79
2021/08/31 23:42:23;;;;;;;17.08;9.70;;;;;;;15.92;100.00;100347.92;716588;1177;114016;-80
2021/08/31 23:57:25;;;;;;;15.47;8.77;;;;;;;15.92;100.00;100361.14;715660;1205;114655;-79
